Anchorage, AK

2:06 PM AKST on February 12, 2016 (GMT -0900)
APRSWXNET | | Change Station
CLOSE
Current Station
Personal Weather Station
Location: Anchorage, AK
Elevation: 2194 ft
Nearby Weather Stations

Elev 2194 ft 61.10 °N, 149.69 °W | Updated 28 minutes ago

Mostly Cloudy
Mostly Cloudy
38.0 °F
Feels Like 38.0 °F
N
0.0
Wind Variable Wind from West
Gusts 2.0 mph

Today
High -- | Low -- °F
--% Chance of Precip.
Yesterday
High -- | Low -- °F
Precip. -- in
Pressure 29.33 in
Visibility 10.0 miles
Clouds Mostly Cloudy 7000 ft
Dew Point 33.0 °F
Humidity 82%
Rainfall in
Snow Depth Not available.
8:50 AM 5:37 PM
Waxing Crescent, 24% visible
METAR PAMR 122253Z 02006KT 10SM BKN070 03/M05 A2933 RMK AO2 SLP932 T00331050
Pressure 29.33 in
Visibility 10.0 miles
Clouds Mostly Cloudy 7000 ft
Dew Point 33.0 °F
Humidity 82%
Rainfall in
Snow Depth Not available.
8:50 AM 5:37 PM
Waxing Crescent, 24% visible
METAR PAMR 122253Z 02006KT 10SM BKN070 03/M05 A2933 RMK AO2 SLP932 T00331050

10-Day Weather Forecast

Almanac

Astronomy

Feb. 12, 2016 Rise Set
Actual Time
Civil Twilight
Nautical Twilight
Astronomical Twilight
Moon
Length of Visible Light
Length of Day
Tomorrow will be .
, % of the Moon is Illuminated

Today's Extremes

State Highs State Lows

Community

WunderPhotos

Upload Photos

1,892,431 photos uploaded!

WunderBlog® & News

Nearby

Air Quality

  Air Quality AQ Index Pollutant
Not available.

Snow Depth

Station Depth Elevation

Earthquake Activity

City Distance Mag. Time & Date
Minimum magnitude displayed is 2.5.

Coastal Water Temperatures

Place Temperature

Stations

Nearby Weather Stations

Station Location Temp. Windchill Dew Point Humidity Wind Precip. Elev Updated Type
                   

Watches & Warnings

There are currently no watches in effect.